Time;durP1;ratioP1;P1;durP2;ratioP2;P2;SDS_P1;SDS_P2;PMS_P1;PMS_P2;Temp;Humidity;BMP_temperature;BMP_pressure;BME280_temperature;BME280_humidity;BME280_pressure;Samples;Min_cycle;Max_cycle;Signal;HPM_P1;HPM_P2
2023/05/17 00:01:16;;;;;;;2.03;1.40;;;10.20;60.90;;;;;;933754;150;27302;-76
2023/05/17 00:03:43;;;;;;;2.20;1.47;;;10.10;61.00;;;;;;937884;151;27767;-76
2023/05/17 00:06:10;;;;;;;1.43;1.30;;;10.10;61.30;;;;;;933928;150;28003;-77
2023/05/17 00:08:36;;;;;;;3.30;1.60;;;10.00;61.50;;;;;;938569;150;27321;-76
2023/05/17 00:11:03;;;;;;;1.90;1.47;;;9.90;61.80;;;;;;923067;152;27651;-77
2023/05/17 00:13:29;;;;;;;3.70;1.57;;;9.90;62.10;;;;;;921856;153;27385;-76
2023/05/17 00:15:56;;;;;;;3.13;1.63;;;9.90;62.30;;;;;;913411;153;27351;-77
2023/05/17 00:18:23;;;;;;;1.60;1.50;;;9.80;62.50;;;;;;924294;153;27450;-76
2023/05/17 00:20:49;;;;;;;15.13;1.63;;;9.80;62.60;;;;;;924721;152;27326;-76
2023/05/17 00:23:16;;;;;;;1.20;1.20;;;9.80;62.60;;;;;;937412;151;27378;-76
2023/05/17 00:25:42;;;;;;;2.33;1.60;;;9.70;62.60;;;;;;936957;151;27452;-76
2023/05/17 00:28:09;;;;;;;1.60;1.20;;;9.70;62.80;;;;;;937010;152;27365;-76
2023/05/17 00:30:36;;;;;;;1.40;1.20;;;9.60;63.70;;;;;;937684;151;27270;-76
2023/05/17 00:33:03;;;;;;;1.93;1.50;;;9.60;63.00;;;;;;935839;152;27509;-76
2023/05/17 00:35:29;;;;;;;2.30;1.30;;;9.50;63.00;;;;;;923415;153;27362;-76
2023/05/17 00:37:55;;;;;;;1.40;1.23;;;9.50;63.20;;;;;;923033;154;27392;-76
2023/05/17 00:40:22;;;;;;;1.53;1.20;;;9.40;63.40;;;;;;924331;152;27340;-76
2023/05/17 00:42:48;;;;;;;2.00;1.13;;;9.30;63.50;;;;;;926231;152;27694;-77
2023/05/17 00:45:15;;;;;;;1.20;1.10;;;9.20;63.70;;;;;;913182;152;27499;-77
2023/05/17 00:47:42;;;;;;;2.23;1.33;;;9.20;63.90;;;;;;916621;152;27382;-79
2023/05/17 00:50:08;;;;;;;1.20;1.10;;;9.10;64.20;;;;;;912373;152;27350;-77
2023/05/17 00:52:35;;;;;;;1.40;1.30;;;9.10;64.40;;;;;;918011;152;27352;-77
2023/05/17 00:55:01;;;;;;;1.73;1.30;;;9.00;64.60;;;;;;932555;149;27484;-76
2023/05/17 00:57:31;;;;;;;1.30;1.20;;;9.00;64.70;;;;;;913575;152;27675;-77
2023/05/17 00:59:57;;;;;;;2.03;1.33;;;8.90;64.90;;;;;;916948;152;27450;-76
2023/05/17 01:02:24;;;;;;;2.20;1.23;;;8.80;65.00;;;;;;935012;149;27418;-77
2023/05/17 01:04:51;;;;;;;1.63;1.23;;;8.80;65.20;;;;;;932883;149;27443;-76
2023/05/17 01:07:17;;;;;;;1.87;1.30;;;8.70;65.40;;;;;;934228;150;27376;-76
2023/05/17 01:09:44;;;;;;;2.40;1.30;;;8.70;65.60;;;;;;932927;149;27516;-77
2023/05/17 01:12:31;;;;;;;1.00;0.90;;;8.60;65.80;;;;;;917578;152;27412;-77
2023/05/17 01:15:13;;;;;;;1.60;1.50;;;8.60;66.00;;;;;;912948;153;27362;-77
2023/05/17 01:17:51;;;;;;;3.73;1.50;;;8.50;65.90;;;;;;933567;149;27377;-77
2023/05/17 01:20:18;;;;;;;1.60;1.27;;;8.50;66.00;;;;;;918862;152;27320;-77
2023/05/17 01:22:50;;;;;;;1.20;1.10;;;8.40;66.20;;;;;;934201;150;27269;-77
2023/05/17 01:25:25;;;;;;;1.17;1.07;;;8.40;66.30;;;;;;911232;153;27503;-76
2023/05/17 01:27:52;;;;;;;2.27;1.57;;;8.30;66.30;;;;;;933169;149;27318;-76
2023/05/17 01:30:19;;;;;;;2.13;1.30;;;8.20;66.40;;;;;;910957;153;27401;-77
2023/05/17 01:32:46;;;;;;;2.70;1.43;;;8.20;66.70;;;;;;933925;149;27358;-76
2023/05/17 01:35:12;;;;;;;1.67;1.50;;;8.10;66.90;;;;;;934354;149;27373;-77
2023/05/17 01:37:38;;;;;;;1.80;1.40;;;8.10;67.10;;;;;;933215;149;27482;-77
2023/05/17 01:40:06;;;;;;;1.37;1.27;;;8.00;67.40;;;;;;933104;149;27334;-77
2023/05/17 01:42:32;;;;;;;2.03;1.43;;;8.00;67.50;;;;;;946399;148;27358;-77
2023/05/17 01:45:17;;;;;;;3.97;1.30;;;8.00;67.60;;;;;;932381;151;27378;-76
2023/05/17 01:47:52;;;;;;;2.73;1.50;;;7.90;67.70;;;;;;946438;148;27476;-77
2023/05/17 01:50:19;;;;;;;2.57;1.67;;;7.80;67.70;;;;;;928532;150;27500;-76
2023/05/17 01:52:54;;;;;;;1.90;1.60;;;7.80;67.70;;;;;;948067;148;27350;-77
2023/05/17 01:55:42;;;;;;;3.17;1.70;;;7.70;67.90;;;;;;928328;151;27355;-77
2023/05/17 01:58:09;;;;;;;1.90;1.50;;;7.70;68.00;;;;;;946469;148;27435;-77
2023/05/17 02:00:36;;;;;;;2.83;1.40;;;7.60;68.00;;;;;;945859;148;27362;-77
2023/05/17 02:03:02;;;;;;;1.83;1.47;;;7.60;68.40;;;;;;946729;148;27416;-77
2023/05/17 02:05:29;;;;;;;4.17;1.57;;;7.50;68.50;;;;;;929782;151;27370;-77
2023/05/17 02:07:55;;;;;;;2.67;1.60;;;7.50;68.60;;;;;;926289;152;27740;-76
2023/05/17 02:10:22;;;;;;;2.23;1.43;;;7.50;68.70;;;;;;930462;151;28352;-76
2023/05/17 02:12:48;;;;;;;2.70;1.40;;;7.40;68.90;;;;;;928978;151;27478;-77
2023/05/17 02:15:15;;;;;;;2.27;1.60;;;7.40;69.10;;;;;;945973;149;27437;-77
2023/05/17 02:17:42;;;;;;;1.93;1.60;;;7.40;69.20;;;;;;946954;151;27473;-75
2023/05/17 02:20:09;;;;;;;1.57;1.17;;;7.30;69.30;;;;;;948221;150;27350;-75
2023/05/17 02:22:35;;;;;;;2.20;1.73;;;7.30;70.30;;;;;;947004;148;28620;-75
2023/05/17 02:25:01;;;;;;;2.07;1.23;;;7.30;69.80;;;;;;947578;149;27871;-75
2023/05/17 02:27:28;;;;;;;5.17;1.40;;;7.20;69.80;;;;;;946479;151;27340;-75
2023/05/17 02:29:55;;;;;;;2.13;1.43;;;7.20;70.00;;;;;;946629;148;27328;-76
2023/05/17 02:32:21;;;;;;;2.90;1.30;;;7.20;70.00;;;;;;947119;151;27361;-75
2023/05/17 02:34:48;;;;;;;2.47;1.40;;;7.20;70.30;;;;;;946454;148;27359;-75
2023/05/17 02:37:14;;;;;;;2.83;1.17;;;7.20;70.40;;;;;;945541;148;27358;-75
2023/05/17 02:39:41;;;;;;;1.83;1.27;;;7.20;70.50;;;;;;946980;148;27380;-75
2023/05/17 02:42:07;;;;;;;2.00;1.33;;;7.10;70.50;;;;;;943022;150;27397;-75
2023/05/17 02:44:34;;;;;;;2.90;1.50;;;7.10;70.70;;;;;;940888;149;27822;-75
2023/05/17 02:47:01;;;;;;;2.17;1.80;;;7.10;70.80;;;;;;930999;149;27328;-76
2023/05/17 02:49:27;;;;;;;4.17;1.37;;;7.10;71.00;;;;;;925720;152;27474;-76
2023/05/17 02:51:54;;;;;;;1.90;1.30;;;7.10;71.10;;;;;;926804;151;27346;-76
2023/05/17 02:54:20;;;;;;;1.53;1.40;;;7.10;71.20;;;;;;926324;151;27390;-75
2023/05/17 02:56:47;;;;;;;1.87;1.27;;;7.00;71.20;;;;;;913843;152;27447;-75
2023/05/17 02:59:14;;;;;;;3.90;1.43;;;7.00;71.30;;;;;;917935;152;27335;-75
2023/05/17 03:01:40;;;;;;;2.10;1.50;;;7.00;71.40;;;;;;911649;153;27371;-75
2023/05/17 03:04:07;;;;;;;1.87;1.57;;;7.00;71.40;;;;;;933310;149;27372;-75
2023/05/17 03:06:33;;;;;;;1.50;1.40;;;7.00;71.50;;;;;;934930;149;27432;-76
2023/05/17 03:09:00;;;;;;;2.33;1.60;;;6.90;71.60;;;;;;916892;152;27437;-75
2023/05/17 03:11:26;;;;;;;4.90;1.70;;;6.90;71.70;;;;;;911259;152;27396;-75
2023/05/17 03:13:53;;;;;;;2.43;1.70;;;6.90;71.80;;;;;;911993;153;27312;-76
2023/05/17 03:16:20;;;;;;;2.93;1.90;;;6.90;71.80;;;;;;926654;152;27890;-75
2023/05/17 03:18:46;;;;;;;2.33;1.73;;;6.90;72.00;;;;;;914283;152;27501;-75
2023/05/17 03:21:13;;;;;;;3.70;1.60;;;6.90;72.10;;;;;;916817;152;27449;-76
2023/05/17 03:23:39;;;;;;;2.43;1.77;;;6.90;72.20;;;;;;931389;149;27371;-75
2023/05/17 03:26:06;;;;;;;1.93;1.50;;;6.80;72.10;;;;;;933470;149;27370;-75
2023/05/17 03:28:33;;;;;;;2.53;1.90;;;6.80;72.10;;;;;;933845;149;27980;-75
2023/05/17 03:30:59;;;;;;;3.90;1.70;;;6.80;72.30;;;;;;932830;150;27347;-75
2023/05/17 03:33:26;;;;;;;2.77;2.10;;;6.80;72.40;;;;;;911255;152;27316;-76
2023/05/17 03:35:52;;;;;;;4.27;1.97;;;6.80;72.50;;;;;;911986;153;27461;-75
2023/05/17 03:38:19;;;;;;;2.43;1.80;;;6.80;72.60;;;;;;934752;149;27465;-75
2023/05/17 03:40:45;;;;;;;2.20;1.80;;;6.80;72.60;;;;;;918637;152;27376;-76
2023/05/17 03:43:12;;;;;;;1.50;1.40;;;6.80;72.90;;;;;;926681;151;27333;-75
2023/05/17 03:45:39;;;;;;;1.90;1.60;;;6.80;72.90;;;;;;927384;152;27929;-76
2023/05/17 03:48:05;;;;;;;1.53;1.43;;;6.80;72.90;;;;;;944666;150;27453;-75
2023/05/17 03:50:32;;;;;;;2.23;1.63;;;6.80;73.20;;;;;;944900;151;27847;-75
2023/05/17 03:52:58;;;;;;;2.77;1.67;;;6.80;73.40;;;;;;944277;149;27285;-75
2023/05/17 03:55:25;;;;;;;1.67;1.47;;;6.80;73.50;;;;;;944755;148;27418;-75
2023/05/17 03:57:52;;;;;;;2.37;1.60;;;6.80;73.70;;;;;;943999;150;27352;-75
2023/05/17 04:00:22;;;;;;;2.20;1.70;;;6.80;74.20;;;;;;944482;148;27908;-75
2023/05/17 04:02:47;;;;;;;2.70;1.70;;;6.80;73.90;;;;;;945289;151;27918;-75
2023/05/17 04:05:14;;;;;;;2.33;1.50;;;6.90;74.10;;;;;;944432;151;27346;-75
2023/05/17 04:07:41;;;;;;;1.83;1.33;;;6.90;74.20;;;;;;944952;151;27356;-75
2023/05/17 04:10:07;;;;;;;2.93;1.60;;;7.00;74.30;;;;;;944564;151;27415;-75
2023/05/17 04:12:34;;;;;;;2.63;1.77;;;7.10;74.50;;;;;;944473;151;27415;-76
2023/05/17 04:15:00;;;;;;;3.00;1.73;;;7.10;74.50;;;;;;929742;151;27396;-75
2023/05/17 04:17:27;;;;;;;3.13;1.53;;;7.20;74.80;;;;;;928968;151;27482;-75
2023/05/17 04:19:53;;;;;;;3.27;1.97;;;7.20;74.80;;;;;;929627;151;27987;-75
2023/05/17 04:22:20;;;;;;;4.60;1.83;;;7.30;74.80;;;;;;926367;151;27407;-75
2023/05/17 04:24:47;;;;;;;1.93;1.67;;;7.40;75.00;;;;;;945741;148;27362;-76
2023/05/17 04:27:13;;;;;;;2.10;1.60;;;7.50;75.10;;;;;;945848;148;27276;-75
2023/05/17 04:29:40;;;;;;;2.37;1.70;;;7.60;75.10;;;;;;934893;150;27496;-76
2023/05/17 04:32:06;;;;;;;1.50;1.40;;;7.70;75.20;;;;;;930137;151;27377;-75
2023/05/17 04:34:33;;;;;;;3.27;2.43;;;7.80;75.30;;;;;;946731;148;27416;-75
2023/05/17 04:37:00;;;;;;;2.10;1.90;;;7.90;75.40;;;;;;947315;148;27342;-75
2023/05/17 04:39:26;;;;;;;3.30;1.73;;;8.00;75.40;;;;;;946239;148;27724;-76
2023/05/17 04:41:53;;;;;;;2.97;1.93;;;8.20;75.50;;;;;;947086;148;27363;-75
2023/05/17 04:44:19;;;;;;;2.20;2.00;;;8.30;75.50;;;;;;913149;152;27527;-76
2023/05/17 04:46:46;;;;;;;2.80;1.90;;;8.40;75.60;;;;;;935112;149;27357;-75
2023/05/17 04:49:13;;;;;;;3.87;2.33;;;8.50;75.70;;;;;;934412;149;27364;-75
2023/05/17 04:51:39;;;;;;;2.20;1.90;;;8.70;75.70;;;;;;911817;152;27379;-75
2023/05/17 04:54:07;;;;;;;2.10;1.80;;;8.90;75.70;;;;;;934140;149;27382;-75
2023/05/17 04:56:32;;;;;;;3.63;2.17;;;9.00;75.80;;;;;;911129;152;27494;-75
2023/05/17 04:58:59;;;;;;;3.40;2.13;;;9.20;75.90;;;;;;934228;150;27416;-75
2023/05/17 05:01:25;;;;;;;2.73;2.10;;;9.40;75.90;;;;;;934813;149;27373;-75
2023/05/17 05:03:52;;;;;;;3.57;2.07;;;9.70;77.10;;;;;;918522;152;27368;-75
2023/05/17 05:06:20;;;;;;;2.87;2.30;;;10.00;76.80;;;;;;918051;152;27325;-76
2023/05/17 05:08:45;;;;;;;3.13;2.00;;;10.30;76.40;;;;;;922185;152;27330;-75
2023/05/17 05:11:12;;;;;;;3.77;2.10;;;10.60;75.70;;;;;;912148;153;27465;-75
2023/05/17 05:13:40;;;;;;;2.67;2.20;;;10.90;75.00;;;;;;926249;151;27473;-75
2023/05/17 05:16:05;;;;;;;2.30;2.10;;;11.20;74.40;;;;;;933604;149;27303;-75
2023/05/17 05:18:32;;;;;;;2.50;2.10;;;11.40;73.90;;;;;;910817;152;27438;-75
2023/05/17 05:20:58;;;;;;;2.60;2.40;;;11.60;73.40;;;;;;911949;153;27396;-75
2023/05/17 05:23:25;;;;;;;2.40;2.20;;;11.80;73.10;;;;;;933808;150;27373;-75
2023/05/17 05:25:51;;;;;;;4.07;2.30;;;11.90;72.80;;;;;;933479;149;27449;-75
2023/05/17 05:28:18;;;;;;;4.03;2.60;;;12.10;72.50;;;;;;911339;152;27348;-75
2023/05/17 05:30:45;;;;;;;3.67;2.83;;;12.30;72.20;;;;;;912389;153;27365;-75
2023/05/17 05:33:11;;;;;;;3.87;2.27;;;12.40;71.80;;;;;;934185;149;27454;-75
2023/05/17 05:35:38;;;;;;;3.67;2.17;;;12.60;71.60;;;;;;934650;150;27370;-75
2023/05/17 05:38:04;;;;;;;4.37;2.40;;;12.70;71.40;;;;;;918851;152;27434;-75
2023/05/17 05:40:31;;;;;;;3.57;2.20;;;12.80;71.10;;;;;;911131;152;27385;-75
2023/05/17 05:42:58;;;;;;;3.20;2.60;;;13.00;70.70;;;;;;917330;152;27396;-75
2023/05/17 05:45:24;;;;;;;4.10;2.50;;;13.10;70.30;;;;;;912348;153;27473;-75
2023/05/17 05:47:51;;;;;;;4.03;2.60;;;13.20;69.80;;;;;;911909;152;27453;-75
2023/05/17 05:50:17;;;;;;;5.13;2.53;;;13.30;69.60;;;;;;918364;152;27418;-76
2023/05/17 05:52:44;;;;;;;3.97;2.20;;;13.40;69.50;;;;;;917305;152;27350;-75
2023/05/17 05:55:11;;;;;;;3.80;2.63;;;13.60;69.70;;;;;;910588;153;27418;-75
2023/05/17 05:57:37;;;;;;;3.40;2.65;;;13.70;69.70;;;;;;933569;149;27363;-75
2023/05/17 06:00:04;;;;;;;4.62;2.58;;;14.00;70.20;;;;;;933742;149;27332;-75
2023/05/17 06:02:30;;;;;;;5.05;2.60;;;14.30;71.30;;;;;;932761;150;27550;-75
2023/05/17 06:04:57;;;;;;;5.42;2.70;;;14.80;71.40;;;;;;932568;149;27329;-75
2023/05/17 06:07:23;;;;;;;3.98;2.60;;;15.30;70.70;;;;;;933309;149;27444;-75
2023/05/17 06:09:50;;;;;;;3.08;2.70;;;15.70;69.60;;;;;;917945;152;27427;-75
2023/05/17 06:12:17;;;;;;;3.20;2.33;;;16.20;68.40;;;;;;934263;149;27359;-75
2023/05/17 06:14:43;;;;;;;3.80;2.58;;;16.50;67.10;;;;;;934830;149;27323;-75
2023/05/17 06:17:10;;;;;;;4.83;2.60;;;16.80;66.00;;;;;;933091;149;27339;-75
2023/05/17 06:19:36;;;;;;;3.15;2.40;;;17.00;64.80;;;;;;932803;149;27486;-75
2023/05/17 06:22:03;;;;;;;3.02;2.42;;;17.20;63.70;;;;;;919853;152;27448;-75
2023/05/17 06:24:30;;;;;;;3.45;2.30;;;17.20;63.50;;;;;;934168;150;27308;-75
2023/05/17 06:26:56;;;;;;;4.72;2.45;;;17.20;62.10;;;;;;918181;152;27355;-76
2023/05/17 06:29:23;;;;;;;7.28;3.62;;;17.10;61.70;;;;;;911192;152;27492;-75
2023/05/17 06:31:49;;;;;;;3.42;2.55;;;17.10;61.30;;;;;;927929;150;27471;-75
2023/05/17 06:34:16;;;;;;;2.90;2.52;;;16.90;61.70;;;;;;927507;150;27292;-75
2023/05/17 06:36:43;;;;;;;3.60;2.67;;;16.80;60.80;;;;;;930027;151;28357;-75
2023/05/17 06:39:09;;;;;;;3.17;2.42;;;16.70;61.90;;;;;;930386;151;27494;-75
2023/05/17 06:41:36;;;;;;;3.75;2.30;;;16.60;61.30;;;;;;929619;151;27380;-75
2023/05/17 06:44:02;;;;;;;4.83;2.50;;;16.60;61.40;;;;;;928558;151;27435;-75
2023/05/17 06:46:29;;;;;;;2.62;2.42;;;16.50;61.60;;;;;;924992;154;27329;-75
2023/05/17 06:48:55;;;;;;;3.85;2.87;;;16.50;61.90;;;;;;924555;154;27394;-75
2023/05/17 06:51:22;;;;;;;3.12;2.80;;;16.50;62.20;;;;;;924741;154;27412;-75
2023/05/17 06:53:49;;;;;;;3.80;2.55;;;16.60;62.50;;;;;;912563;156;27394;-76
2023/05/17 06:56:15;;;;;;;2.87;2.25;;;16.70;62.80;;;;;;918040;152;27365;-77
2023/05/17 06:58:42;;;;;;;14.13;3.02;;;16.90;62.80;;;;;;918965;154;27349;-77
2023/05/17 07:01:09;;;;;;;5.28;2.80;;;17.00;62.50;;;;;;938689;151;27361;-77
2023/05/17 07:03:35;;;;;;;2.55;2.35;;;17.10;61.80;;;;;;937795;151;27346;-77
2023/05/17 07:06:02;;;;;;;3.90;2.55;;;17.20;60.50;;;;;;937713;152;27450;-77
2023/05/17 07:08:31;;;;;;;4.67;2.58;;;17.20;60.70;;;;;;938508;150;27374;-77
2023/05/17 07:10:55;;;;;;;4.12;2.85;;;17.20;60.80;;;;;;938292;151;27344;-77
2023/05/17 07:13:21;;;;;;;6.33;2.95;;;17.20;60.30;;;;;;921898;153;27398;-77
2023/05/17 07:15:48;;;;;;;3.17;2.35;;;17.10;60.30;;;;;;938483;152;27293;-77
2023/05/17 07:18:15;;;;;;;5.72;3.10;;;17.10;60.40;;;;;;938866;151;27427;-77
2023/05/17 07:20:41;;;;;;;4.12;2.65;;;17.10;60.50;;;;;;937246;152;27441;-76
2023/05/17 07:23:08;;;;;;;4.42;2.60;;;17.10;60.50;;;;;;938864;152;27353;-76
2023/05/17 07:25:37;;;;;;;2.80;2.42;;;17.10;60.50;;;;;;939148;151;27433;-76
2023/05/17 07:28:01;;;;;;;5.37;2.75;;;17.10;60.70;;;;;;913546;154;27376;-77
2023/05/17 07:30:27;;;;;;;5.10;2.58;;;17.20;60.80;;;;;;921393;153;27442;-76
2023/05/17 07:32:54;;;;;;;3.10;2.70;;;17.20;60.80;;;;;;938844;152;27352;-76
2023/05/17 07:35:21;;;;;;;5.45;2.58;;;17.40;61.00;;;;;;911673;154;27368;-76
2023/05/17 07:37:47;;;;;;;5.70;2.65;;;17.60;61.10;;;;;;924462;152;27443;-76
2023/05/17 07:40:14;;;;;;;4.30;2.95;;;17.70;61.20;;;;;;931313;151;27250;-76
2023/05/17 07:42:40;;;;;;;4.08;2.62;;;18.00;61.30;;;;;;938552;150;27292;-76
2023/05/17 07:45:07;;;;;;;6.10;2.58;;;18.30;61.50;;;;;;924969;152;27395;-76
2023/05/17 07:47:34;;;;;;;3.35;2.42;;;18.70;61.30;;;;;;915691;153;27401;-76
2023/05/17 07:50:00;;;;;;;5.35;3.00;;;19.10;61.00;;;;;;937862;152;27375;-76
2023/05/17 07:52:27;;;;;;;3.77;2.52;;;19.40;60.40;;;;;;938737;152;27417;-76
2023/05/17 07:54:54;;;;;;;3.20;2.35;;;19.80;60.00;;;;;;938673;150;27760;-76
2023/05/17 07:57:20;;;;;;;2.95;2.65;;;20.20;59.60;;;;;;938014;150;27862;-76
2023/05/17 07:59:47;;;;;;;3.10;2.45;;;20.60;59.10;;;;;;939147;150;27295;-76
2023/05/17 08:02:13;;;;;;;3.95;2.50;;;21.00;58.60;;;;;;922474;153;27352;-76
2023/05/17 08:04:40;;;;;;;5.00;2.40;;;21.30;58.00;;;;;;924882;152;27829;-76
2023/05/17 08:07:07;;;;;;;3.60;2.50;;;21.60;57.30;;;;;;915789;152;27458;-76
2023/05/17 08:09:33;;;;;;;2.95;2.45;;;21.90;56.60;;;;;;928082;152;27968;-76
2023/05/17 08:12:00;;;;;;;3.95;2.47;;;22.10;56.10;;;;;;925134;154;27369;-76
2023/05/17 08:14:26;;;;;;;3.42;2.08;;;22.30;56.30;;;;;;924973;152;27338;-76
2023/05/17 08:16:53;;;;;;;4.80;2.62;;;22.40;55.20;;;;;;925661;152;28251;-76
2023/05/17 08:19:19;;;;;;;4.35;2.87;;;22.50;54.60;;;;;;924697;152;27404;-76
2023/05/17 08:21:48;;;;;;;3.10;2.27;;;22.60;54.20;;;;;;916139;152;27354;-76
2023/05/17 08:24:13;;;;;;;8.00;2.33;;;22.70;53.80;;;;;;938777;152;27467;-76
2023/05/17 08:26:39;;;;;;;3.25;2.37;;;22.70;53.60;;;;;;938295;152;27294;-76
2023/05/17 08:29:06;;;;;;;4.00;2.12;;;22.70;53.20;;;;;;937683;151;27344;-76
2023/05/17 08:31:32;;;;;;;3.33;2.42;;;22.70;53.00;;;;;;913469;155;27327;-76
2023/05/17 08:33:59;;;;;;;5.28;2.60;;;22.80;53.00;;;;;;916045;152;27408;-76
2023/05/17 08:36:27;;;;;;;3.90;2.12;;;22.80;52.90;;;;;;921836;155;27378;-76
2023/05/17 08:38:52;;;;;;;2.30;2.05;;;22.80;52.30;;;;;;938413;152;27365;-76
2023/05/17 08:41:19;;;;;;;3.52;2.10;;;22.80;52.30;;;;;;915988;152;27385;-76
2023/05/17 08:43:45;;;;;;;1.87;1.65;;;22.80;52.20;;;;;;938632;151;27902;-76
2023/05/17 08:46:12;;;;;;;3.50;2.20;;;22.80;52.00;;;;;;936134;149;27328;-76
2023/05/17 08:48:40;;;;;;;4.15;1.90;;;22.80;51.70;;;;;;934091;149;27413;-76
2023/05/17 08:51:05;;;;;;;5.97;2.67;;;22.70;50.50;;;;;;917923;152;27511;-76
2023/05/17 08:53:34;;;;;;;3.90;2.12;;;22.60;50.80;;;;;;912212;152;27379;-76
2023/05/17 08:56:02;;;;;;;3.80;2.27;;;22.50;50.10;;;;;;933766;149;27391;-76
2023/05/17 08:58:25;;;;;;;3.95;2.37;;;22.30;50.10;;;;;;916249;152;27360;-76
2023/05/17 09:00:52;;;;;;;3.20;2.10;;;22.10;49.90;;;;;;922963;152;27317;-76
2023/05/17 09:03:18;;;;;;;4.33;2.25;;;22.00;50.80;;;;;;919100;152;27380;-76
2023/05/17 09:05:45;;;;;;;2.90;2.15;;;22.10;52.60;;;;;;911521;153;27434;-76
2023/05/17 09:08:12;;;;;;;3.60;2.10;;;22.50;53.20;;;;;;919396;153;27819;-76
2023/05/17 09:10:38;;;;;;;3.72;1.70;;;23.00;53.90;;;;;;934662;150;27444;-76
2023/05/17 09:13:04;;;;;;;4.03;2.05;;;23.60;53.10;;;;;;934838;149;27447;-76
2023/05/17 09:15:33;;;;;;;2.02;1.80;;;24.10;52.20;;;;;;934842;149;27334;-76
2023/05/17 09:17:58;;;;;;;3.52;1.82;;;24.50;50.80;;;;;;919266;152;27437;-76
2023/05/17 09:20:33;;;;;;;2.77;1.85;;;24.70;49.50;;;;;;933484;149;27359;-76
2023/05/17 09:22:56;;;;;;;4.05;2.08;;;24.90;48.70;;;;;;931884;149;27384;-76
2023/05/17 09:25:23;;;;;;;3.67;2.12;;;24.90;47.90;;;;;;933459;149;27454;-76
2023/05/17 09:27:53;;;;;;;4.22;2.35;;;24.80;47.20;;;;;;933380;149;27693;-76
2023/05/17 09:30:19;;;;;;;2.40;1.62;;;24.60;46.50;;;;;;933035;149;27313;-76
2023/05/17 09:32:46;;;;;;;3.45;2.10;;;24.30;46.30;;;;;;933096;149;27377;-76
2023/05/17 09:35:12;;;;;;;5.15;2.20;;;24.00;46.30;;;;;;934346;149;27458;-76
2023/05/17 09:37:39;;;;;;;3.95;1.90;;;23.70;46.50;;;;;;934329;149;27286;-76
2023/05/17 09:40:06;;;;;;;3.75;2.10;;;23.40;46.80;;;;;;934661;149;27379;-76
2023/05/17 09:42:35;;;;;;;2.17;1.80;;;23.20;46.80;;;;;;933521;149;27337;-76
2023/05/17 09:45:00;;;;;;;4.72;2.00;;;22.90;46.70;;;;;;933693;149;27361;-76
2023/05/17 09:47:25;;;;;;;3.55;2.10;;;22.70;46.70;;;;;;928661;151;27477;-76
2023/05/17 09:49:52;;;;;;;2.37;2.10;;;22.40;46.80;;;;;;927182;152;27334;-76
2023/05/17 09:52:21;;;;;;;3.27;1.98;;;22.10;47.00;;;;;;948274;150;27331;-77
2023/05/17 09:54:51;;;;;;;3.33;1.82;;;21.80;47.20;;;;;;946162;151;27367;-77
2023/05/17 09:57:17;;;;;;;2.52;2.02;;;21.60;47.50;;;;;;946931;151;27360;-77
2023/05/17 09:59:44;;;;;;;3.52;2.10;;;21.30;48.00;;;;;;947077;151;27376;-77
2023/05/17 10:02:11;;;;;;;2.00;1.80;;;21.20;48.00;;;;;;947750;151;27301;-76
2023/05/17 10:04:37;;;;;;;5.20;2.35;;;21.00;48.10;;;;;;946958;151;27368;-77
2023/05/17 10:07:04;;;;;;;2.25;1.70;;;20.90;48.20;;;;;;946849;150;27256;-77
2023/05/17 10:09:34;;;;;;;3.17;1.92;;;20.80;48.30;;;;;;948131;150;27477;-76
2023/05/17 10:11:58;;;;;;;2.08;1.70;;;20.70;48.60;;;;;;947167;148;27334;-76
2023/05/17 10:14:23;;;;;;;3.65;2.10;;;20.70;48.80;;;;;;946576;148;27488;-77
2023/05/17 10:16:50;;;;;;;2.62;1.92;;;20.70;49.00;;;;;;946664;151;27361;-77
2023/05/17 10:19:18;;;;;;;3.87;2.17;;;20.80;49.20;;;;;;947484;148;27322;-77
2023/05/17 10:21:43;;;;;;;3.20;2.35;;;20.90;49.40;;;;;;947881;151;27417;-77
2023/05/17 10:24:10;;;;;;;3.52;1.67;;;21.00;49.30;;;;;;948019;150;27332;-77
2023/05/17 10:26:37;;;;;;;3.77;2.05;;;21.20;49.20;;;;;;947714;150;27777;-77
2023/05/17 10:29:03;;;;;;;2.98;1.82;;;21.40;48.70;;;;;;947982;151;27405;-77
2023/05/17 10:31:30;;;;;;;4.17;2.27;;;21.60;48.40;;;;;;947489;148;27649;-77
2023/05/17 10:33:56;;;;;;;4.65;2.25;;;21.80;48.20;;;;;;948498;151;27763;-77
2023/05/17 10:36:23;;;;;;;3.90;2.30;;;22.00;48.20;;;;;;948142;151;27364;-77
2023/05/17 10:38:49;;;;;;;2.50;2.05;;;22.20;48.00;;;;;;948054;151;27309;-77
2023/05/17 10:41:16;;;;;;;2.45;2.10;;;22.40;47.60;;;;;;947828;150;27415;-77
2023/05/17 10:43:43;;;;;;;3.92;1.70;;;22.60;47.50;;;;;;948179;150;27323;-77
2023/05/17 10:46:15;;;;;;;3.05;1.65;;;22.80;47.20;;;;;;947812;150;27368;-77
2023/05/17 10:48:42;;;;;;;2.75;2.00;;;22.90;46.80;;;;;;943026;151;27354;-77
2023/05/17 10:51:08;;;;;;;2.50;1.77;;;23.00;46.40;;;;;;943226;150;27410;-77
2023/05/17 10:53:35;;;;;;;2.87;2.10;;;23.20;46.30;;;;;;916943;154;27306;-77
2023/05/17 10:56:01;;;;;;;3.72;2.05;;;23.30;45.90;;;;;;912272;154;27499;-77
2023/05/17 10:58:28;;;;;;;2.80;2.22;;;23.30;45.80;;;;;;940143;151;27358;-77
2023/05/17 11:00:55;;;;;;;3.10;1.72;;;23.40;45.60;;;;;;924084;153;27358;-77
2023/05/17 11:03:21;;;;;;;2.98;1.75;;;23.40;45.30;;;;;;917191;153;27348;-77
2023/05/17 11:06:09;;;;;;;3.70;1.77;;;23.40;45.00;;;;;;924176;153;27383;-77
2023/05/17 11:08:36;;;;;;;3.92;1.52;;;23.30;44.80;;;;;;940509;152;27373;-77
2023/05/17 11:11:11;;;;;;;3.20;1.60;;;23.30;44.60;;;;;;939682;150;27376;-77
2023/05/17 11:13:35;;;;;;;2.60;1.70;;;23.20;44.30;;;;;;923225;152;27444;-77
2023/05/17 11:16:04;;;;;;;3.92;1.50;;;23.10;44.20;;;;;;929588;152;27296;-77
2023/05/17 11:18:46;;;;;;;2.87;1.90;;;23.00;44.30;;;;;;924092;153;27385;-78
2023/05/17 11:21:13;;;;;;;3.50;1.80;;;22.90;44.40;;;;;;917338;156;27469;-77
2023/05/17 11:23:39;;;;;;;2.02;1.82;;;22.80;44.60;;;;;;930600;152;27337;-77
2023/05/17 11:26:21;;;;;;;3.12;1.90;;;22.80;44.70;;;;;;931283;152;27290;-77
2023/05/17 11:28:47;;;;;;;2.27;1.80;;;22.80;44.60;;;;;;931361;152;27357;-77
2023/05/17 11:31:14;;;;;;;2.50;1.60;;;22.70;44.60;;;;;;931532;152;27380;-77
2023/05/17 11:33:44;;;;;;;3.65;1.80;;;22.70;44.00;;;;;;930432;152;27332;-77
2023/05/17 11:36:20;;;;;;;2.62;1.70;;;22.70;44.30;;;;;;930185;151;27516;-77
2023/05/17 11:38:49;;;;;;;3.60;2.05;;;22.70;44.20;;;;;;930543;151;27339;-78
2023/05/17 11:41:21;;;;;;;2.05;1.70;;;22.60;44.40;;;;;;930184;151;27402;-77
2023/05/17 11:43:48;;;;;;;1.92;1.65;;;22.60;44.40;;;;;;931446;153;27361;-78
2023/05/17 11:46:20;;;;;;;2.25;1.72;;;22.60;44.50;;;;;;931255;152;27347;-77
2023/05/17 11:48:47;;;;;;;1.75;1.27;;;22.50;45.00;;;;;;927587;152;27388;-77
2023/05/17 11:51:15;;;;;;;3.12;1.55;;;22.50;44.40;;;;;;926680;152;27394;-77
2023/05/17 11:53:40;;;;;;;2.87;1.67;;;22.50;44.20;;;;;;927150;152;27459;-77
2023/05/17 11:56:07;;;;;;;1.52;1.35;;;22.50;44.00;;;;;;917055;153;27418;-77
2023/05/17 11:58:33;;;;;;;2.00;1.80;;;22.50;43.90;;;;;;934025;149;27323;-77
2023/05/17 12:01:00;;;;;;;2.58;1.70;;;22.50;43.70;;;;;;912080;153;27404;-77
2023/05/17 12:03:29;;;;;;;1.72;1.55;;;22.50;43.60;;;;;;934643;150;27378;-77
2023/05/17 12:06:02;;;;;;;2.40;1.57;;;22.50;43.70;;;;;;935400;149;27405;-77
2023/05/17 12:08:29;;;;;;;3.45;1.72;;;22.50;43.80;;;;;;917998;152;27348;-77
2023/05/17 12:10:58;;;;;;;2.87;1.95;;;22.50;43.80;;;;;;918360;152;27433;-77
2023/05/17 12:13:25;;;;;;;1.92;1.50;;;22.40;43.80;;;;;;919301;152;27546;-77
2023/05/17 12:15:51;;;;;;;2.52;1.70;;;22.40;43.50;;;;;;914299;152;27310;-77
2023/05/17 12:18:19;;;;;;;1.82;1.37;;;22.30;43.50;;;;;;919077;152;27359;-77
2023/05/17 12:20:54;;;;;;;2.95;1.75;;;22.20;43.40;;;;;;923255;152;27376;-77
2023/05/17 12:23:29;;;;;;;2.30;1.60;;;22.10;43.40;;;;;;912354;152;27431;-77
2023/05/17 12:26:05;;;;;;;5.15;1.70;;;22.00;43.30;;;;;;918040;152;27377;-77
2023/05/17 12:28:31;;;;;;;3.40;1.50;;;21.90;43.30;;;;;;912513;153;27310;-77
2023/05/17 12:31:01;;;;;;;1.77;1.50;;;21.80;43.30;;;;;;935077;149;27306;-78
2023/05/17 12:33:24;;;;;;;1.67;1.50;;;21.80;43.50;;;;;;934132;149;27458;-77
2023/05/17 12:35:51;;;;;;;1.95;1.60;;;21.70;43.80;;;;;;935023;149;27366;-77
2023/05/17 12:38:18;;;;;;;2.55;1.60;;;21.70;43.90;;;;;;934469;150;27331;-77
2023/05/17 12:40:44;;;;;;;2.75;1.50;;;21.80;43.70;;;;;;934622;150;27353;-77
2023/05/17 12:43:11;;;;;;;2.10;1.60;;;21.70;43.60;;;;;;922961;152;27350;-77
2023/05/17 12:45:37;;;;;;;3.27;1.47;;;21.70;43.50;;;;;;912899;153;27390;-77
2023/05/17 12:48:04;;;;;;;4.42;1.85;;;21.70;43.30;;;;;;937579;148;27823;-77
2023/05/17 12:50:30;;;;;;;2.52;1.85;;;21.60;43.10;;;;;;947758;148;27335;-77